createdAt,value
2018-01-07T00:01:51.547Z,5.00
2018-01-07T00:04:19.707Z,5.00
2018-01-07T00:06:47.891Z,5.00
2018-01-07T00:09:17.001Z,5.00
2018-01-07T00:11:45.212Z,4.90
2018-01-07T00:14:13.384Z,4.90
2018-01-07T00:16:43.375Z,4.90
2018-01-07T00:19:11.453Z,4.80
2018-01-07T00:21:39.641Z,4.80
2018-01-07T00:24:07.858Z,4.80
2018-01-07T00:26:35.999Z,4.80
2018-01-07T00:29:04.407Z,4.80
2018-01-07T00:36:45.867Z,4.60
2018-01-07T00:39:18.053Z,4.50
2018-01-07T00:44:25.194Z,4.70
2018-01-07T00:46:53.280Z,4.70
2018-01-07T00:49:21.600Z,4.70
2018-01-07T00:51:50.781Z,4.70
2018-01-07T00:54:19.825Z,4.60
2018-01-07T00:56:47.912Z,4.70
2018-01-07T00:59:16.124Z,4.70
2018-01-07T01:04:41.834Z,4.60
2018-01-07T01:09:43.355Z,4.50
2018-01-07T01:12:11.690Z,4.50
2018-01-07T01:14:39.779Z,4.50
2018-01-07T01:17:07.964Z,4.40
2018-01-07T01:19:36.798Z,4.50
2018-01-07T01:25:01.083Z,4.40
2018-01-07T01:30:25.908Z,4.30
2018-01-07T01:32:59.133Z,4.30
2018-01-07T01:35:32.237Z,4.30
2018-01-07T01:38:00.428Z,4.30
2018-01-07T01:40:31.689Z,4.30
2018-01-07T01:45:43.845Z,4.30
2018-01-07T01:48:12.003Z,4.30
2018-01-07T01:50:41.156Z,4.30
2018-01-07T01:53:11.190Z,4.30
2018-01-07T01:55:40.356Z,4.30
2018-01-07T01:58:09.501Z,4.20
2018-01-07T02:00:37.915Z,4.10
2018-01-07T02:03:06.089Z,4.20
2018-01-07T02:05:34.276Z,4.20
2018-01-07T02:08:02.408Z,4.20
2018-01-07T02:10:30.828Z,4.20
2018-01-07T02:12:58.997Z,4.10
2018-01-07T02:15:28.039Z,4.10
2018-01-07T02:17:56.939Z,4.00
2018-01-07T02:20:25.893Z,4.10
2018-01-07T02:25:28.588Z,4.10
2018-01-07T02:33:54.147Z,3.90
2018-01-07T02:36:22.906Z,3.90
2018-01-07T02:38:52.104Z,4.00
2018-01-07T02:41:22.508Z,4.00
2018-01-07T02:43:51.604Z,4.00
2018-01-07T02:46:20.865Z,3.90
2018-01-07T02:48:49.735Z,3.90
2018-01-07T02:51:17.885Z,3.90
2018-01-07T02:53:46.060Z,3.90
2018-01-07T02:56:14.151Z,4.00
2018-01-07T02:58:42.427Z,3.90
2018-01-07T03:01:10.518Z,3.90
2018-01-07T03:03:38.659Z,3.90
2018-01-07T03:06:10.559Z,3.90
2018-01-07T03:08:39.479Z,3.90
2018-01-07T03:11:07.623Z,3.90
2018-01-07T03:13:35.760Z,3.90
2018-01-07T03:16:04.657Z,3.90
2018-01-07T03:18:32.849Z,3.90
2018-01-07T03:21:00.963Z,3.90
2018-01-07T03:26:48.164Z,3.90
2018-01-07T03:29:16.255Z,3.90
2018-01-07T03:31:45.349Z,3.90
2018-01-07T03:34:16.532Z,3.90
2018-01-07T03:36:45.663Z,3.90
2018-01-07T03:39:14.454Z,3.90
2018-01-07T03:41:42.552Z,3.90
2018-01-07T03:44:13.595Z,3.90
2018-01-07T03:46:41.872Z,3.90
2018-01-07T03:49:10.727Z,3.90
2018-01-07T03:51:38.920Z,3.90
2018-01-07T03:54:07.312Z,3.90
2018-01-07T03:56:35.424Z,3.90
2018-01-07T03:59:05.257Z,4.00
2018-01-07T04:04:25.200Z,4.00
2018-01-07T04:06:54.146Z,4.00
2018-01-07T04:09:22.294Z,3.90
2018-01-07T04:11:50.608Z,4.00
2018-01-07T04:14:18.994Z,4.00
2018-01-07T04:16:48.224Z,3.90
2018-01-07T04:19:17.503Z,3.90
2018-01-07T04:21:45.630Z,4.00
2018-01-07T04:24:14.527Z,3.90
2018-01-07T04:26:42.619Z,3.90
2018-01-07T04:29:11.479Z,3.90
2018-01-07T04:31:39.629Z,3.90
2018-01-07T04:34:07.760Z,3.90
2018-01-07T04:40:41.910Z,3.90
2018-01-07T04:43:10.080Z,3.90
2018-01-07T04:45:38.321Z,3.90
2018-01-07T04:48:06.419Z,3.90
2018-01-07T04:50:34.564Z,3.90
2018-01-07T04:53:02.812Z,3.80
2018-01-07T04:55:30.903Z,3.90
2018-01-07T04:57:59.039Z,3.90
2018-01-07T05:00:27.215Z,3.90
2018-01-07T05:02:55.422Z,3.90
2018-01-07T05:05:23.555Z,3.80
2018-01-07T05:10:27.460Z,3.80
2018-01-07T05:12:55.588Z,3.80
2018-01-07T05:15:23.748Z,3.80
2018-01-07T05:17:52.648Z,3.80
2018-01-07T05:20:23.485Z,3.80
2018-01-07T05:22:51.965Z,3.80
2018-01-07T05:25:21.966Z,3.70
2018-01-07T05:27:50.190Z,3.80
2018-01-07T05:30:18.324Z,3.80
2018-01-07T05:32:48.166Z,3.80
2018-01-07T05:35:18.175Z,3.70
2018-01-07T05:37:46.597Z,3.70
2018-01-07T05:40:14.821Z,3.70
2018-01-07T05:42:42.922Z,3.70
2018-01-07T05:45:12.217Z,3.70
2018-01-07T05:47:41.496Z,3.70
2018-01-07T05:50:12.990Z,3.70
2018-01-07T05:52:41.132Z,3.70
2018-01-07T05:55:09.240Z,3.70
2018-01-07T06:00:20.509Z,3.60
2018-01-07T06:02:48.656Z,3.60
2018-01-07T06:12:02.736Z,3.60
2018-01-07T06:14:31.035Z,2.20
2018-01-07T06:16:59.138Z,3.60
2018-01-07T06:19:27.286Z,3.50
2018-01-07T06:21:55.555Z,3.50
2018-01-07T06:24:24.604Z,3.50
2018-01-07T06:26:52.755Z,3.50
2018-01-07T06:29:20.848Z,3.50
2018-01-07T06:31:52.163Z,3.50
2018-01-07T06:34:22.535Z,3.50
2018-01-07T06:36:50.737Z,3.50
2018-01-07T06:39:19.604Z,3.50
2018-01-07T06:41:47.743Z,3.50
2018-01-07T06:44:15.897Z,3.50
2018-01-07T06:46:43.980Z,3.50
2018-01-07T06:49:12.969Z,3.50
2018-01-07T06:51:42.131Z,3.40
2018-01-07T06:54:10.976Z,3.40
2018-01-07T06:56:39.122Z,3.50
2018-01-07T06:59:07.343Z,3.50
2018-01-07T07:01:35.427Z,3.50
2018-01-07T07:04:03.566Z,3.40
2018-01-07T07:06:32.772Z,3.40
2018-01-07T07:09:00.963Z,3.50
2018-01-07T07:11:29.082Z,3.40
2018-01-07T07:13:57.187Z,3.40
2018-01-07T07:16:25.267Z,3.40
2018-01-07T07:18:53.484Z,3.40
2018-01-07T07:24:13.501Z,3.40
2018-01-07T07:26:41.688Z,3.50
2018-01-07T07:29:09.792Z,3.40
2018-01-07T07:31:37.939Z,3.50
2018-01-07T07:34:06.952Z,3.50
2018-01-07T07:36:35.323Z,3.50
2018-01-07T07:39:03.744Z,3.50
2018-01-07T07:41:31.816Z,3.50
2018-01-07T07:43:59.993Z,3.50
2018-01-07T07:46:28.076Z,3.50
2018-01-07T07:48:57.303Z,3.60
2018-01-07T07:51:25.389Z,3.60
2018-01-07T07:53:53.548Z,3.50
2018-01-07T07:56:21.645Z,3.50
2018-01-07T07:58:49.723Z,3.50
2018-01-07T08:01:18.499Z,3.50
2018-01-07T08:03:46.835Z,3.50
2018-01-07T08:06:19.800Z,3.50
2018-01-07T08:08:49.656Z,3.60
2018-01-07T08:11:17.768Z,3.60
2018-01-07T08:13:47.905Z,3.60
2018-01-07T08:16:18.299Z,3.50
2018-01-07T08:25:55.212Z,3.50
2018-01-07T08:28:25.163Z,3.60
2018-01-07T08:30:53.262Z,3.50
2018-01-07T08:33:23.120Z,3.50
2018-01-07T08:35:51.249Z,3.50
2018-01-07T08:38:20.887Z,3.50
2018-01-07T08:40:49.157Z,3.50
2018-01-07T08:43:17.310Z,3.50
2018-01-07T08:45:46.262Z,3.50
2018-01-07T08:48:14.431Z,3.50
2018-01-07T08:50:43.587Z,3.50
2018-01-07T08:53:18.600Z,3.50
2018-01-07T08:58:33.051Z,3.50
2018-01-07T09:01:01.165Z,3.50
2018-01-07T09:03:29.314Z,3.50
2018-01-07T09:05:57.434Z,3.50
2018-01-07T09:08:25.562Z,3.50
2018-01-07T09:10:54.805Z,3.50
2018-01-07T09:13:22.958Z,3.60
2018-01-07T09:15:59.376Z,3.60
2018-01-07T09:18:27.525Z,3.50
2018-01-07T09:20:55.793Z,3.50
2018-01-07T09:23:25.384Z,3.50
2018-01-07T09:25:55.604Z,3.50
2018-01-07T09:28:23.813Z,3.60
2018-01-07T09:30:52.004Z,3.60
2018-01-07T09:33:20.195Z,3.70
2018-01-07T09:38:26.565Z,3.60
2018-01-07T09:41:00.301Z,3.60
2018-01-07T09:49:19.461Z,3.50
2018-01-07T09:51:47.551Z,3.50
2018-01-07T09:54:18.933Z,3.60
2018-01-07T09:56:48.823Z,3.50
2018-01-07T09:59:25.240Z,3.50
2018-01-07T10:01:53.485Z,3.40
2018-01-07T10:04:24.164Z,3.30
2018-01-07T10:06:52.368Z,3.40
2018-01-07T10:09:20.624Z,3.40
2018-01-07T10:11:51.235Z,3.40
2018-01-07T10:14:20.535Z,3.40
2018-01-07T10:16:54.432Z,3.40
2018-01-07T10:19:23.070Z,3.40
2018-01-07T10:21:51.244Z,3.40
2018-01-07T10:24:24.238Z,3.40
2018-01-07T10:26:53.751Z,3.40
2018-01-07T10:29:21.888Z,3.50
2018-01-07T10:35:22.164Z,3.50
2018-01-07T10:37:55.849Z,3.60
2018-01-07T10:40:25.058Z,3.70
2018-01-07T10:42:53.326Z,3.60
2018-01-07T10:45:22.345Z,3.60
2018-01-07T10:47:52.184Z,3.60
2018-01-07T10:50:20.356Z,3.60
2018-01-07T10:52:48.445Z,3.60
2018-01-07T10:55:17.716Z,3.60
2018-01-07T10:57:45.930Z,3.70
2018-01-07T11:00:14.109Z,3.70
2018-01-07T11:02:43.091Z,3.60
2018-01-07T11:05:12.075Z,3.60
2018-01-07T11:07:40.277Z,3.70
2018-01-07T11:10:11.273Z,3.70
2018-01-07T11:12:40.393Z,3.70
2018-01-07T11:15:08.645Z,3.70
2018-01-07T11:17:39.672Z,3.70
2018-01-07T11:20:08.573Z,3.70
2018-01-07T11:22:37.864Z,3.70
2018-01-07T11:25:08.854Z,3.70
2018-01-07T11:27:39.163Z,3.70
2018-01-07T11:30:07.348Z,3.70
2018-01-07T11:32:35.545Z,3.80
2018-01-07T11:35:03.831Z,3.70
2018-01-07T11:37:32.090Z,3.70
2018-01-07T11:40:03.976Z,3.80
2018-01-07T11:42:35.812Z,3.70
2018-01-07T11:45:06.116Z,3.80
2018-01-07T11:47:35.169Z,3.80
2018-01-07T11:50:03.411Z,3.70
2018-01-07T11:52:34.310Z,3.80
2018-01-07T11:55:02.531Z,3.70
2018-01-07T11:57:31.135Z,3.70
2018-01-07T12:00:00.172Z,3.70
2018-01-07T12:02:30.372Z,3.70
2018-01-07T12:05:02.148Z,3.70
2018-01-07T12:07:31.330Z,3.60
2018-01-07T12:10:01.207Z,3.70
2018-01-07T12:15:02.711Z,3.80
2018-01-07T12:17:47.642Z,3.80
2018-01-07T12:20:18.399Z,3.80
2018-01-07T12:22:50.408Z,3.80
2018-01-07T12:28:40.101Z,3.60
2018-01-07T12:42:17.874Z,3.70
2018-01-07T12:47:24.325Z,3.60
2018-01-07T12:50:03.938Z,3.60
2018-01-07T12:55:43.569Z,3.60
2018-01-07T12:58:11.683Z,3.60
2018-01-07T13:03:23.208Z,3.60
2018-01-07T13:05:59.041Z,3.60
2018-01-07T13:08:35.966Z,3.60
2018-01-07T13:11:13.297Z,3.60
2018-01-07T13:13:56.255Z,3.60
2018-01-07T13:22:46.128Z,3.60
2018-01-07T13:28:04.948Z,3.50
2018-01-07T13:36:28.185Z,3.40
2018-01-07T13:39:06.113Z,3.50
2018-01-07T13:41:41.036Z,3.50
2018-01-07T13:44:17.195Z,3.40
2018-01-07T13:51:01.485Z,3.40
2018-01-07T14:04:45.270Z,3.30
2018-01-07T14:10:21.846Z,3.30
2018-01-07T14:13:10.131Z,3.40
2018-01-07T14:24:28.350Z,3.20
2018-01-07T14:32:43.587Z,3.10
2018-01-07T14:44:26.132Z,3.10
2018-01-07T14:52:04.399Z,3.00
2018-01-07T14:54:40.578Z,3.00
2018-01-07T14:57:09.206Z,3.00
2018-01-07T14:59:40.331Z,3.00
2018-01-07T15:02:08.758Z,3.00
2018-01-07T15:04:40.553Z,3.00
2018-01-07T15:12:53.444Z,2.90
2018-01-07T15:15:23.553Z,2.90
2018-01-07T15:23:53.960Z,2.90
2018-01-07T15:26:26.971Z,2.90
2018-01-07T15:28:57.609Z,2.70
2018-01-07T15:31:31.606Z,2.80
2018-01-07T15:34:00.468Z,2.70
2018-01-07T15:36:28.566Z,2.80
2018-01-07T15:38:58.226Z,2.80
2018-01-07T15:41:26.640Z,2.80
2018-01-07T15:43:56.802Z,2.80
2018-01-07T15:46:24.933Z,2.80
2018-01-07T15:48:56.421Z,2.80
2018-01-07T15:51:24.548Z,2.70
2018-01-07T15:57:24.056Z,2.70
2018-01-07T16:02:43.791Z,2.60
2018-01-07T16:05:13.866Z,2.70
2018-01-07T16:07:49.853Z,2.60
2018-01-07T16:10:21.577Z,2.60
2018-01-07T16:15:26.660Z,2.70
2018-01-07T16:17:55.826Z,2.70
2018-01-07T16:20:23.937Z,2.60
2018-01-07T16:26:09.153Z,2.70
2018-01-07T16:28:46.130Z,2.60
2018-01-07T16:31:16.056Z,2.70
2018-01-07T16:37:53.549Z,2.70
2018-01-07T16:40:23.237Z,2.70
2018-01-07T16:42:53.916Z,2.70
2018-01-07T16:45:22.084Z,2.60
2018-01-07T16:50:31.289Z,2.70
2018-01-07T16:53:08.769Z,2.70
2018-01-07T16:55:45.393Z,2.60
2018-01-07T16:58:28.761Z,2.60
2018-01-07T17:01:01.100Z,2.60
2018-01-07T17:03:30.760Z,2.60
2018-01-07T17:06:01.175Z,2.60
2018-01-07T17:08:30.917Z,2.60
2018-01-07T17:11:06.207Z,2.60
2018-01-07T17:13:56.395Z,2.60
2018-01-07T17:16:25.560Z,2.60
2018-01-07T17:22:03.136Z,2.50
2018-01-07T17:24:38.338Z,2.50
2018-01-07T17:30:12.200Z,2.40
2018-01-07T17:32:40.343Z,2.40
2018-01-07T17:37:46.192Z,2.40
2018-01-07T17:47:02.245Z,2.40
2018-01-07T17:52:16.279Z,2.40
2018-01-07T17:55:06.301Z,2.40
2018-01-07T17:57:35.247Z,2.40
2018-01-07T18:00:03.369Z,2.40
2018-01-07T18:02:32.410Z,2.40
2018-01-07T18:05:01.579Z,2.40
2018-01-07T18:07:30.891Z,2.30
2018-01-07T18:10:00.042Z,2.30
2018-01-07T18:12:28.222Z,2.30
2018-01-07T18:14:59.031Z,2.30
2018-01-07T18:17:27.124Z,2.20
2018-01-07T18:19:58.326Z,2.20
2018-01-07T18:22:26.442Z,2.20
2018-01-07T18:25:00.857Z,2.20
2018-01-07T18:27:29.772Z,2.20
2018-01-07T18:29:58.235Z,2.20
2018-01-07T18:32:27.124Z,2.20
2018-01-07T18:34:58.260Z,2.20
2018-01-07T18:37:26.406Z,2.20
2018-01-07T18:40:01.121Z,2.20
2018-01-07T18:47:37.687Z,2.10
2018-01-07T18:50:06.603Z,2.10
2018-01-07T18:55:42.581Z,2.20
2018-01-07T18:58:10.663Z,2.10
2018-01-07T19:00:45.130Z,2.20
2018-01-07T19:03:15.908Z,2.10
2018-01-07T19:05:44.051Z,2.10
2018-01-07T19:08:16.157Z,2.10
2018-01-07T19:10:44.305Z,2.10
2018-01-07T19:13:16.259Z,2.10
2018-01-07T19:15:44.497Z,2.10
2018-01-07T19:18:13.523Z,2.10
2018-01-07T19:20:42.009Z,2.10
2018-01-07T19:23:13.166Z,2.20
2018-01-07T19:25:41.260Z,2.10
2018-01-07T19:28:09.405Z,2.10
2018-01-07T19:30:38.502Z,2.20
2018-01-07T19:33:06.822Z,2.20
2018-01-07T19:35:35.077Z,2.20
2018-01-07T19:38:09.201Z,2.10
2018-01-07T19:40:37.430Z,2.20
2018-01-07T19:43:06.872Z,2.20
2018-01-07T19:45:35.117Z,2.20
2018-01-07T19:48:05.100Z,2.10
2018-01-07T19:50:33.530Z,2.20
2018-01-07T19:53:10.635Z,2.20
2018-01-07T19:55:39.851Z,2.20
2018-01-07T19:58:11.053Z,2.20
2018-01-07T20:00:41.940Z,2.30
2018-01-07T20:06:05.982Z,2.20
2018-01-07T20:08:34.423Z,2.20
2018-01-07T20:11:02.609Z,2.20
2018-01-07T20:16:08.157Z,2.20
2018-01-07T20:21:29.667Z,2.10
2018-01-07T20:27:26.246Z,2.10
2018-01-07T20:29:58.554Z,2.10
2018-01-07T20:32:42.787Z,2.10
2018-01-07T20:47:39.356Z,2.20
2018-01-07T20:50:10.661Z,2.10
2018-01-07T20:52:44.668Z,2.10
2018-01-07T20:55:12.805Z,2.00
2018-01-07T21:00:47.710Z,2.10
2018-01-07T21:03:18.986Z,2.10
2018-01-07T21:05:53.803Z,2.10
2018-01-07T21:08:21.975Z,2.00
2018-01-07T21:13:24.994Z,2.00
2018-01-07T21:15:57.316Z,2.00
2018-01-07T21:18:30.651Z,2.00
2018-01-07T21:20:58.747Z,2.00
2018-01-07T21:23:29.806Z,1.90
2018-01-07T21:25:58.750Z,1.90
2018-01-07T21:28:30.017Z,1.90
2018-01-07T21:31:00.227Z,1.90
2018-01-07T21:33:30.129Z,1.90
2018-01-07T21:41:54.505Z,2.00
2018-01-07T21:44:42.774Z,2.00
2018-01-07T21:55:40.351Z,2.00
2018-01-07T22:04:10.243Z,2.00
2018-01-07T22:07:02.248Z,2.00
2018-01-07T22:17:58.421Z,2.00
2018-01-07T22:20:26.587Z,2.00
2018-01-07T22:22:59.456Z,2.00
2018-01-07T22:25:27.616Z,2.00
2018-01-07T22:28:02.837Z,2.00
2018-01-07T22:30:32.919Z,2.00
2018-01-07T22:33:01.024Z,2.00
2018-01-07T22:35:33.465Z,2.00
2018-01-07T22:38:02.481Z,2.00
2018-01-07T22:40:31.476Z,1.90
2018-01-07T22:43:00.373Z,2.00
2018-01-07T22:45:32.504Z,2.00
2018-01-07T22:48:06.466Z,2.00
2018-01-07T22:50:35.379Z,2.00
2018-01-07T22:53:04.402Z,2.00
2018-01-07T22:55:36.920Z,2.10
2018-01-07T22:58:05.034Z,2.10
2018-01-07T23:00:39.020Z,2.10
2018-01-07T23:03:07.180Z,2.10
2018-01-07T23:05:35.369Z,2.00
2018-01-07T23:08:04.490Z,2.10
2018-01-07T23:10:32.615Z,2.10
2018-01-07T23:13:00.788Z,2.20
2018-01-07T23:15:28.934Z,2.10
2018-01-07T23:17:57.144Z,2.10
2018-01-07T23:20:25.428Z,2.10
2018-01-07T23:22:53.536Z,2.10
2018-01-07T23:25:25.760Z,2.20
2018-01-07T23:30:28.720Z,2.20
2018-01-07T23:32:58.041Z,2.20
2018-01-07T23:35:30.421Z,2.20
2018-01-07T23:43:35.172Z,2.30
2018-01-07T23:49:00.090Z,2.30
2018-01-07T23:57:13.344Z,2.30
2018-01-07T23:59:41.483Z,2.30
